Time;durP1;ratioP1;P1;durP2;ratioP2;P2;SDS_P1;SDS_P2;PMS_P1;PMS_P2;Temp;Humidity;BMP_temperature;BMP_pressure;BME280_temperature;BME280_humidity;BME280_pressure;Samples;Min_cycle;Max_cycle;Signal;HPM_P1;HPM_P2
2023/08/28 00:02:09;;;;;;;0.90;0.90;;;;;;;20.63;81.77;96640.34;5042145;28;20503;-60
2023/08/28 00:04:35;;;;;;;0.75;0.75;;;;;;;20.46;81.85;96615.50;5042334;28;20559;-60
2023/08/28 00:07:02;;;;;;;0.82;0.82;;;;;;;20.52;82.03;96641.88;5042783;28;20701;-59
2023/08/28 00:09:29;;;;;;;0.90;0.90;;;;;;;20.45;82.31;96633.63;5042202;28;20045;-60
2023/08/28 00:11:56;;;;;;;0.80;0.80;;;;;;;19.96;83.20;96581.53;5042583;28;20049;-61
2023/08/28 00:14:26;;;;;;;1.00;1.00;;;;;;;20.14;83.91;96636.09;5040197;28;20551;-61
2023/08/28 00:16:53;;;;;;;0.90;0.90;;;;;;;20.09;84.39;96638.63;5042171;28;20052;-59
2023/08/28 00:19:20;;;;;;;0.80;0.80;;;;;;;19.99;84.95;96651.75;5040609;28;20565;-60
2023/08/28 00:21:47;;;;;;;0.80;0.80;;;;;;;19.90;85.49;96643.13;5041622;28;20053;-61
2023/08/28 00:24:13;;;;;;;0.90;0.90;;;;;;;19.99;85.49;96645.31;5041627;28;20155;-60
2023/08/28 00:26:40;;;;;;;0.93;0.93;;;;;;;20.00;86.08;96638.44;5041681;28;20053;-60
2023/08/28 00:29:07;;;;;;;0.80;0.80;;;;;;;20.08;85.86;96642.66;5041505;28;20044;-59
2023/08/28 00:31:33;;;;;;;0.90;0.90;;;;;;;20.02;85.96;96639.59;5041504;28;20300;-59
2023/08/28 00:34:00;;;;;;;0.80;0.80;;;;;;;20.01;86.07;96642.88;5041066;28;20057;-61
2023/08/28 00:36:26;;;;;;;0.90;0.90;;;;;;;19.73;85.45;96598.63;5041072;28;20060;-60
2023/08/28 00:38:53;;;;;;;0.90;0.90;;;;;;;19.75;84.92;96591.31;5040770;28;20053;-62
2023/08/28 00:41:20;;;;;;;0.90;0.90;;;;;;;20.06;85.31;96623.41;5041143;28;20076;-59
2023/08/28 00:43:46;;;;;;;0.80;0.80;;;;;;;20.07;84.92;96610.97;5041368;28;20057;-60
2023/08/28 00:46:14;;;;;;;0.80;0.80;;;;;;;19.99;84.12;96578.63;5039189;28;20053;-60
2023/08/28 00:48:41;;;;;;;0.90;0.90;;;;;;;19.49;84.01;96528.56;5041144;28;20049;-60
2023/08/28 00:51:08;;;;;;;1.00;1.00;;;;;;;19.85;84.61;96600.72;5041070;28;20068;-61
2023/08/28 00:53:35;;;;;;;0.90;0.90;;;;;;;20.24;84.35;96634.22;5039521;28;20056;-60
2023/08/28 00:56:03;;;;;;;0.90;0.90;;;;;;;20.21;83.79;96629.47;5038983;28;20060;-60
2023/08/28 00:58:29;;;;;;;0.90;0.90;;;;;;;20.09;84.64;96621.75;5033799;28;20056;-59
2023/08/28 01:00:56;;;;;;;0.90;0.90;;;;;;;19.75;84.41;96560.41;5019326;28;20061;-59
2023/08/28 01:03:23;;;;;;;0.80;0.80;;;;;;;20.12;84.62;96620.88;5019633;28;20045;-60
2023/08/28 01:06:19;;;;;;;0.85;0.85;;;;;;;20.04;85.01;96614.66;5022311;28;20715;-59
2023/08/28 01:09:25;;;;;;;0.90;0.90;;;;;;;20.01;85.25;96609.13;5022121;28;20052;-59
2023/08/28 01:12:05;;;;;;;0.90;0.90;;;;;;;19.83;86.59;96625.66;5020291;28;20132;-59
2023/08/28 01:14:37;;;;;;;0.90;0.90;;;;;;;19.74;87.22;96622.69;5021648;28;20053;-60
2023/08/28 01:17:06;;;;;;;0.80;0.80;;;;;;;19.83;86.50;96620.84;5021518;28;20045;-59
2023/08/28 01:19:38;;;;;;;0.90;0.90;;;;;;;19.82;85.88;96618.47;5021716;28;20053;-60
2023/08/28 01:22:51;;;;;;;0.80;0.80;;;;;;;19.61;87.19;96617.00;5022270;28;20391;-59
2023/08/28 01:25:19;;;;;;;0.82;0.82;;;;;;;19.47;87.39;96625.78;5006171;28;20049;-59
2023/08/28 01:27:46;;;;;;;0.80;0.80;;;;;;;17.54;87.99;96342.06;5020908;28;20048;-60
2023/08/28 01:30:16;;;;;;;0.80;0.80;;;;;;;19.39;87.55;96613.88;5021463;28;20069;-61
2023/08/28 01:32:45;;;;;;;0.80;0.80;;;;;;;19.29;88.47;96614.16;5019690;28;20391;-59
2023/08/28 01:35:19;;;;;;;0.80;0.80;;;;;;;18.99;88.55;96550.66;5021044;28;20132;-60
2023/08/28 01:38:17;;;;;;;0.90;0.90;;;;;;;19.40;87.99;96604.25;5019507;28;20517;-59
2023/08/28 01:40:54;;;;;;;0.80;0.80;;;;;;;19.31;88.21;96594.84;5025040;28;20068;-59
2023/08/28 01:43:23;;;;;;;0.70;0.70;;;;;;;19.33;88.32;96600.84;5020178;28;20057;-60
2023/08/28 01:45:51;;;;;;;0.82;0.82;;;;;;;18.96;88.30;96551.53;5020240;28;20046;-60
2023/08/28 01:48:18;;;;;;;0.80;0.80;;;;;;;19.30;88.23;96594.06;5021250;28;20063;-60
2023/08/28 01:50:45;;;;;;;0.80;0.80;;;;;;;19.25;88.35;96591.75;5019003;28;20488;-60
2023/08/28 01:53:12;;;;;;;0.80;0.80;;;;;;;19.24;88.47;96590.16;5020314;28;20050;-60
2023/08/28 01:55:45;;;;;;;0.80;0.80;;;;;;;19.29;88.58;96586.88;5020196;28;20056;-62
2023/08/28 01:58:12;;;;;;;0.90;0.90;;;;;;;19.29;87.86;96580.47;5027895;28;20044;-59
2023/08/28 02:00:39;;;;;;;0.80;0.80;;;;;;;19.31;88.27;96589.25;5038403;28;20064;-60
2023/08/28 02:03:09;;;;;;;0.80;0.80;;;;;;;19.27;88.97;96583.69;5040511;28;20057;-59
2023/08/28 02:05:36;;;;;;;0.88;0.88;;;;;;;19.25;88.99;96590.97;5040016;28;20103;-59
2023/08/28 02:08:04;;;;;;;0.80;0.80;;;;;;;19.11;89.35;96569.63;5040160;28;20427;-59
2023/08/28 02:10:30;;;;;;;0.80;0.80;;;;;;;16.89;88.31;96224.66;5039896;28;20281;-59
2023/08/28 02:12:57;;;;;;;0.80;0.80;;;;;;;19.27;88.26;96586.47;5038479;28;20575;-60
2023/08/28 02:15:24;;;;;;;0.80;0.80;;;;;;;19.21;88.28;96584.63;5040048;28;20071;-59
2023/08/28 02:17:51;;;;;;;0.80;0.80;;;;;;;19.25;87.87;96583.31;5039953;28;20080;-60
2023/08/28 02:20:17;;;;;;;0.90;0.90;;;;;;;18.77;87.05;96499.06;5039061;28;20049;-61
2023/08/28 02:22:44;;;;;;;0.90;0.90;;;;;;;19.27;87.21;96583.69;5039977;28;20195;-60
2023/08/28 02:25:11;;;;;;;0.85;0.85;;;;;;;19.25;87.22;96580.50;5040427;28;20045;-60
2023/08/28 02:27:37;;;;;;;0.80;0.80;;;;;;;19.12;88.34;96582.44;5040513;28;20048;-61
2023/08/28 02:30:05;;;;;;;0.80;0.80;;;;;;;19.19;87.13;96585.06;5039227;28;20061;-59
2023/08/28 02:32:31;;;;;;;0.80;0.80;;;;;;;18.75;86.97;96518.34;5041118;28;20048;-61
2023/08/28 02:34:58;;;;;;;0.80;0.80;;;;;;;19.06;88.00;96578.56;5039100;28;20057;-60
2023/08/28 02:37:25;;;;;;;0.90;0.90;;;;;;;19.02;88.13;96611.56;5041211;28;20049;-60
2023/08/28 02:39:51;;;;;;;0.88;0.88;;;;;;;19.11;88.26;96575.22;5041442;28;20049;-62
2023/08/28 02:42:18;;;;;;;0.80;0.80;;;;;;;19.08;88.15;96570.50;5041338;28;20056;-61
2023/08/28 02:44:45;;;;;;;0.80;0.80;;;;;;;18.98;88.83;96565.94;5040773;28;20055;-61
2023/08/28 02:47:11;;;;;;;0.80;0.80;;;;;;;19.01;88.90;96562.25;5041000;28;20071;-60
2023/08/28 02:49:38;;;;;;;0.80;0.80;;;;;;;18.90;90.02;96567.34;5040996;28;20057;-61
2023/08/28 02:52:05;;;;;;;0.80;0.80;;;;;;;18.67;89.79;96533.78;5041444;28;20071;-61
2023/08/28 02:54:32;;;;;;;0.80;0.80;;;;;;;18.96;89.72;96559.16;5040935;28;20049;-60
2023/08/28 02:57:00;;;;;;;0.80;0.80;;;;;;;18.67;90.25;96519.75;5041054;28;20447;-60
2023/08/28 02:59:27;;;;;;;0.80;0.80;;;;;;;18.84;89.71;96529.00;5043116;28;20053;-61
2023/08/28 03:01:54;;;;;;;0.93;0.93;;;;;;;19.09;89.04;96555.25;5044679;28;20053;-63
2023/08/28 03:04:20;;;;;;;0.80;0.80;;;;;;;18.59;89.79;96504.28;5044617;28;20140;-60
2023/08/28 03:06:47;;;;;;;0.80;0.80;;;;;;;19.01;89.75;96575.50;5044921;28;20049;-61
2023/08/28 03:09:16;;;;;;;0.80;0.80;;;;;;;18.82;90.76;96568.72;5044773;28;20479;-61
2023/08/28 03:11:43;;;;;;;0.80;0.80;;;;;;;18.86;90.48;96579.84;5042858;28;20170;-61
2023/08/28 03:14:10;;;;;;;0.80;0.80;;;;;;;18.68;91.11;96563.44;5043639;28;20508;-60
2023/08/28 03:16:36;;;;;;;0.70;0.70;;;;;;;18.74;91.75;96572.91;5044016;28;20049;-60
2023/08/28 03:19:03;;;;;;;0.80;0.80;;;;;;;18.78;91.35;96572.84;5042299;28;20053;-61
2023/08/28 03:21:30;;;;;;;0.85;0.85;;;;;;;18.67;91.78;96561.84;5042478;28;20048;-61
2023/08/28 03:23:57;;;;;;;0.80;0.80;;;;;;;18.59;92.96;96566.00;5043880;28;20056;-61
2023/08/28 03:26:25;;;;;;;0.80;0.80;;;;;;;18.07;91.72;96571.50;5044183;28;20508;-63
2023/08/28 03:28:52;;;;;;;0.80;0.80;;;;;;;17.56;96.67;96576.88;5044380;28;20103;-60
2023/08/28 03:31:18;;;;;;;0.73;0.73;;;;;;;17.72;95.65;96574.19;5042608;28;20056;-61
2023/08/28 03:33:45;;;;;;;0.80;0.80;;;;;;;18.02;93.97;96571.19;5043982;28;20049;-63
2023/08/28 03:36:12;;;;;;;0.80;0.80;;;;;;;18.18;93.45;96562.84;5043882;28;20048;-60
2023/08/28 03:38:38;;;;;;;0.80;0.80;;;;;;;17.95;93.82;96520.91;5042701;28;20053;-61
2023/08/28 03:41:07;;;;;;;0.70;0.70;;;;;;;18.21;94.32;96578.03;5040631;28;20071;-60
2023/08/28 03:43:34;;;;;;;0.77;0.77;;;;;;;18.41;93.04;96574.03;5024171;28;20591;-60
2023/08/28 03:46:01;;;;;;;0.80;0.80;;;;;;;18.43;93.08;96579.97;5022614;28;20049;-60
2023/08/28 03:48:28;;;;;;;0.82;0.82;;;;;;;18.01;92.89;96508.75;5024507;28;20483;-61
2023/08/28 03:50:55;;;;;;;0.80;0.80;;;;;;;18.58;92.43;96581.28;5024141;28;20432;-62
2023/08/28 03:53:21;;;;;;;0.80;0.80;;;;;;;18.65;93.04;96575.50;5024516;28;20050;-61
2023/08/28 03:55:48;;;;;;;0.80;0.80;;;;;;;18.67;93.24;96573.06;5022895;28;20057;-61
2023/08/28 03:58:17;;;;;;;0.80;0.80;;;;;;;18.78;92.17;96573.59;5029289;28;20351;-59
2023/08/28 04:00:43;;;;;;;0.80;0.80;;;;;;;18.65;92.52;96575.50;5044078;28;20048;-60
2023/08/28 04:03:10;;;;;;;0.80;0.80;;;;;;;18.66;92.55;96571.47;5043931;28;20053;-61
2023/08/28 04:05:38;;;;;;;0.90;0.90;;;;;;;18.50;91.92;96534.97;5043953;28;20052;-62
2023/08/28 04:08:05;;;;;;;0.80;0.80;;;;;;;18.87;91.25;96571.00;5042632;28;20059;-60
2023/08/28 04:10:32;;;;;;;0.80;0.80;;;;;;;18.69;90.06;96536.16;5043198;28;20575;-60
2023/08/28 04:12:58;;;;;;;0.90;0.90;;;;;;;18.48;89.73;96489.72;5043584;28;20064;-61
2023/08/28 04:15:25;;;;;;;0.80;0.80;;;;;;;19.00;89.38;96569.09;5041665;28;20045;-61
2023/08/28 04:17:51;;;;;;;0.80;0.80;;;;;;;18.49;89.87;96510.16;5042999;28;20057;-60
2023/08/28 04:20:18;;;;;;;0.80;0.80;;;;;;;18.99;89.66;96575.94;5043035;28;20508;-61
2023/08/28 04:22:45;;;;;;;0.77;0.77;;;;;;;18.99;88.66;96577.94;5042757;28;20049;-62
2023/08/28 04:25:14;;;;;;;0.80;0.80;;;;;;;18.99;88.51;96581.56;5042749;28;20052;-61
2023/08/28 04:27:41;;;;;;;0.82;0.82;;;;;;;19.09;86.61;96586.13;5042772;28;20041;-62
2023/08/28 04:30:09;;;;;;;0.80;0.80;;;;;;;19.02;87.00;96583.47;5043178;28;20056;-61
2023/08/28 04:32:36;;;;;;;0.80;0.80;;;;;;;18.72;86.91;96519.22;5040866;28;20056;-61
2023/08/28 04:35:03;;;;;;;0.80;0.80;;;;;;;19.08;87.05;96587.34;5041294;28;20149;-60
2023/08/28 04:37:30;;;;;;;0.90;0.90;;;;;;;18.82;86.99;96517.41;5042425;28;20048;-60
2023/08/28 04:39:57;;;;;;;0.88;0.88;;;;;;;19.26;86.82;96576.50;5042000;28;20084;-61
2023/08/28 04:42:24;;;;;;;0.85;0.85;;;;;;;19.39;86.05;96574.56;5040616;28;20124;-60
2023/08/28 04:44:50;;;;;;;0.90;0.90;;;;;;;19.54;85.99;96575.81;5042020;28;20045;-61
2023/08/28 04:47:17;;;;;;;0.70;0.70;;;;;;;19.53;85.33;96557.38;5042380;28;20071;-60
2023/08/28 04:49:44;;;;;;;0.82;0.82;;;;;;;19.71;85.81;96590.63;5042390;28;20606;-60
2023/08/28 04:52:10;;;;;;;0.90;0.90;;;;;;;19.86;85.47;96579.78;5042672;28;20045;-63
2023/08/28 04:54:37;;;;;;;0.90;0.90;;;;;;;20.10;84.95;96578.34;5041734;28;20049;-61
2023/08/28 04:57:04;;;;;;;0.80;0.80;;;;;;;19.96;84.10;96542.19;5040923;28;20500;-61
2023/08/28 04:59:31;;;;;;;0.90;0.90;;;;;;;20.40;83.74;96570.25;5040497;28;20144;-61
2023/08/28 05:01:58;;;;;;;0.90;0.90;;;;;;;20.09;83.23;96521.28;5040307;28;20048;-60
2023/08/28 05:04:24;;;;;;;0.80;0.80;;;;;;;20.64;82.33;96579.22;5038649;28;20059;-62
2023/08/28 05:06:51;;;;;;;0.90;0.90;;;;;;;20.72;81.88;96586.22;5038181;28;20519;-60
2023/08/28 05:09:18;;;;;;;0.95;0.95;;;;;;;20.70;81.00;96571.78;5040027;28;20072;-60
2023/08/28 05:11:44;;;;;;;0.90;0.90;;;;;;;20.95;80.46;96588.72;5040230;28;20387;-59
2023/08/28 05:14:11;;;;;;;0.90;0.90;;;;;;;20.62;80.86;96576.03;5037798;28;20051;-60
2023/08/28 05:16:38;;;;;;;0.90;0.90;;;;;;;20.52;81.49;96571.50;5018605;28;20049;-61
2023/08/28 05:19:05;;;;;;;0.90;0.90;;;;;;;20.81;80.92;96589.94;5020406;28;20064;-60
2023/08/28 05:21:32;;;;;;;0.90;0.90;;;;;;;20.81;80.54;96594.78;5019560;28;20076;-61
2023/08/28 05:23:59;;;;;;;0.90;0.90;;;;;;;20.92;80.26;96589.59;5020479;28;20072;-62
2023/08/28 05:26:26;;;;;;;0.80;0.80;;;;;;;21.12;78.88;96590.22;5021660;28;20107;-62
2023/08/28 05:28:52;;;;;;;0.90;0.90;;;;;;;20.98;77.75;96549.22;5019981;28;21012;-61
2023/08/28 05:31:19;;;;;;;0.90;0.90;;;;;;;21.44;77.79;96580.72;5021735;28;20107;-61
2023/08/28 05:33:46;;;;;;;1.00;1.00;;;;;;;21.57;77.25;96579.47;5020318;28;20485;-63
2023/08/28 05:36:13;;;;;;;1.00;1.00;;;;;;;21.71;76.95;96579.00;5020374;28;20406;-61
2023/08/28 05:38:39;;;;;;;0.82;0.82;;;;;;;21.88;76.20;96565.53;5021591;28;20598;-61
2023/08/28 05:41:06;;;;;;;0.95;0.95;;;;;;;22.07;75.47;96570.91;5021184;28;20076;-62
2023/08/28 05:43:33;;;;;;;0.93;0.93;;;;;;;22.22;74.55;96571.97;5021748;28;20475;-62
2023/08/28 05:45:59;;;;;;;0.90;0.90;;;;;;;22.26;74.90;96574.66;5021406;28;20049;-60
2023/08/28 05:48:26;;;;;;;0.90;0.90;;;;;;;22.44;73.62;96572.78;5021542;28;20052;-61
2023/08/28 05:50:53;;;;;;;0.80;0.80;;;;;;;22.61;73.34;96578.22;5020620;28;20148;-60
2023/08/28 05:53:20;;;;;;;1.00;1.00;;;;;;;22.75;72.37;96572.03;5019485;28;20483;-63
2023/08/28 05:55:47;;;;;;;0.90;0.90;;;;;;;;;;5020797;28;20584;-60
2023/08/28 05:58:13;;;;;;;1.00;1.00;;;;;;;22.89;72.56;96577.16;5002514;28;20137;-60
2023/08/28 06:00:40;;;;;;;0.90;0.90;;;;;;;22.85;72.78;96577.31;5021771;28;20054;-60
2023/08/28 06:03:07;;;;;;;0.80;0.80;;;;;;;22.68;73.06;96549.75;5020599;28;20629;-60
2023/08/28 06:05:34;;;;;;;0.93;0.93;;;;;;;23.09;72.61;96591.72;5016734;28;20057;-60
2023/08/28 06:08:01;;;;;;;0.90;0.90;;;;;;;23.38;71.56;96592.16;5034717;28;20049;-71
2023/08/28 06:10:31;;;;;;;1.00;1.00;;;;;;;22.91;70.52;96501.19;5016005;28;20475;-64
2023/08/28 06:12:58;;;;;;;1.23;1.23;;;;;;;23.15;71.47;96551.09;5009782;28;20498;-63
2023/08/28 06:15:25;;;;;;;1.00;1.00;;;;;;;23.17;71.51;96559.88;5020217;28;20212;-63
2023/08/28 06:17:52;;;;;;;1.00;1.00;;;;;;;23.14;69.98;96500.69;5019166;28;20056;-61
2023/08/28 06:20:18;;;;;;;1.00;1.00;;;;;;;23.76;69.09;96575.63;5020493;28;20554;-65
2023/08/28 06:22:45;;;;;;;1.10;1.10;;;;;;;24.06;68.86;96586.09;5020949;28;20553;-61
2023/08/28 06:25:12;;;;;;;1.10;1.10;;;;;;;23.64;68.18;96534.13;5018411;28;20144;-62
2023/08/28 06:27:39;;;;;;;1.20;1.20;;;;;;;23.83;68.37;96538.56;5020672;28;20091;-64
2023/08/28 06:30:06;;;;;;;1.10;1.10;;;;;;;24.43;67.60;96586.88;5020416;28;20063;-65
2023/08/28 06:32:33;;;;;;;1.17;1.17;;;;;;;23.04;66.77;96329.53;5021817;28;20054;-63
2023/08/28 06:35:00;;;;;;;1.13;1.13;;;;;;;24.74;66.37;96579.81;5021833;28;20049;-66
2023/08/28 06:37:27;;;;;;;1.25;1.25;;;;;;;24.84;66.07;96564.38;5015839;28;20104;-62
2023/08/28 06:39:54;;;;;;;1.10;1.10;;;;;;;24.56;65.25;96511.84;5019887;28;20521;-64
2023/08/28 06:42:21;;;;;;;1.10;1.10;;;;;;;24.93;65.34;96575.66;5022406;28;20111;-66
2023/08/28 06:44:50;;;;;;;1.10;1.10;;;;;;;23.49;68.01;96468.13;5025237;28;20059;-60
2023/08/28 06:47:17;;;;;;;1.15;1.15;;;;;;;24.21;69.36;96609.69;5023385;28;20049;-62
2023/08/28 06:49:44;;;;;;;1.10;1.10;;;;;;;24.10;67.78;96490.50;5023485;28;20064;-65
2023/08/28 06:52:10;;;;;;;1.05;1.05;;;;;;;24.40;67.96;96577.31;5022972;28;20045;-61
2023/08/28 06:54:37;;;;;;;1.00;1.00;;;;;;;23.39;66.68;96351.44;5039735;28;20119;-62
2023/08/28 06:57:07;;;;;;;1.20;1.20;;;;;;;24.90;65.56;96570.97;5016511;28;20571;-62
2023/08/28 06:59:33;;;;;;;1.20;1.20;;;;;;;24.93;64.78;96541.66;5004186;28;20068;-63
2023/08/28 07:02:00;;;;;;;1.20;1.20;;;;;;;25.51;62.95;96580.22;5033954;28;20044;-63
2023/08/28 07:04:27;;;;;;;1.30;1.30;;;;;;;25.66;62.26;96569.72;5038139;28;20405;-64
2023/08/28 07:06:53;;;;;;;1.10;1.10;;;;;;;25.95;61.56;96575.56;5018021;28;20059;-65
2023/08/28 07:09:20;;;;;;;1.33;1.33;;;;;;;26.10;60.92;96571.53;5029374;28;20059;-62
2023/08/28 07:11:47;;;;;;;1.20;1.20;;;;;;;26.07;60.04;96580.22;5020047;28;20103;-64
2023/08/28 07:14:14;;;;;;;1.20;1.20;;;;;;;26.22;59.75;96572.56;5016593;28;20054;-63
2023/08/28 07:16:41;;;;;;;1.20;1.20;;;;;;;26.13;59.42;96547.06;5022026;28;20064;-64
2023/08/28 07:19:08;;;;;;;1.40;1.40;;;;;;;25.90;57.94;96505.25;5024070;28;20085;-63
2023/08/28 07:21:34;;;;;;;1.42;1.42;;;;;;;25.06;58.31;96343.84;5021606;28;20099;-62
2023/08/28 07:24:01;;;;;;;1.20;1.20;;;;;;;26.57;58.14;96576.38;5013733;28;20056;-60
2023/08/28 07:26:28;;;;;;;1.30;1.30;;;;;;;26.61;57.61;96576.94;5018234;28;20140;-64
2023/08/28 07:28:54;;;;;;;1.50;1.50;;;;;;;26.66;56.60;96559.25;5021302;28;20049;-63
2023/08/28 07:31:22;;;;;;;1.40;1.40;;;;;;;26.85;56.80;96579.75;5023081;28;20053;-64
2023/08/28 07:33:49;;;;;;;1.55;1.55;;;;;;;26.99;56.04;96578.97;5011678;28;20132;-62
2023/08/28 07:36:22;;;;;;;1.55;1.55;;;;;;;26.73;56.16;96534.06;5022429;28;20046;-64
2023/08/28 07:38:49;;;;;;;1.52;1.52;;;;;;;27.21;55.60;96570.81;5022515;28;20057;-58
2023/08/28 07:41:20;;;;;;;1.27;1.27;;;;;;;26.79;55.57;96547.59;5012602;28;20564;-62
2023/08/28 07:43:47;;;;;;;1.30;1.30;;;;;;;26.77;55.62;96482.72;5012834;28;20564;-66
2023/08/28 07:46:14;;;;;;;1.30;1.30;;;;;;;27.44;54.97;96570.72;5011347;28;20894;-65
2023/08/28 07:48:41;;;;;;;1.60;1.60;;;;;;;26.42;55.15;96396.56;5020206;28;20060;-64
2023/08/28 07:51:09;;;;;;;1.40;1.40;;;;;;;27.40;55.60;96558.78;5007468;28;20377;-65
2023/08/28 07:53:37;;;;;;;1.40;1.40;;;;;;;27.70;55.32;96590.78;5002353;28;20050;-66
2023/08/28 07:56:06;;;;;;;1.30;1.30;;;;;;;27.59;54.62;96565.78;5009878;28;20087;-64
2023/08/28 07:58:33;;;;;;;1.38;1.38;;;;;;;27.50;55.52;96563.06;5022026;28;20053;-65
2023/08/28 08:01:00;;;;;;;1.45;1.45;;;;;;;27.34;54.79;96506.69;5019381;28;20053;-67
2023/08/28 08:03:27;;;;;;;1.65;1.65;;;;;;;27.86;54.58;96582.50;5022345;28;20114;-65
2023/08/28 08:05:55;;;;;;;1.60;1.60;;;;;;;27.67;55.59;96571.84;5028327;28;20087;-62
2023/08/28 08:08:22;;;;;;;1.50;1.50;;;;;;;27.77;55.16;96588.31;5031632;28;20141;-65
2023/08/28 08:10:49;;;;;;;1.30;1.30;;;;;;;27.77;54.53;96588.31;5021682;28;20138;-65
2023/08/28 08:13:17;;;;;;;1.55;1.55;;;;;;;27.37;53.90;96537.00;5008094;28;20057;-63
2023/08/28 08:15:44;;;;;;;1.45;1.45;;;;;;;27.91;53.59;96579.00;5006739;28;20519;-59
2023/08/28 08:18:11;;;;;;;1.60;1.60;;;;;;;28.13;53.44;96559.34;5007885;28;20061;-67
2023/08/28 08:20:38;;;;;;;1.60;1.60;;;;;;;28.38;51.21;96562.75;5016434;28;20103;-68
2023/08/28 08:23:04;;;;;;;1.45;1.45;;;;;;;28.37;50.66;96550.56;5020905;28;20057;-60
2023/08/28 08:25:33;;;;;;;1.70;1.70;;;;;;;27.86;50.87;96516.22;5017556;28;20073;-63
2023/08/28 08:28:02;;;;;;;1.50;1.50;;;;;;;27.98;50.67;96489.47;5018506;28;20041;-63
2023/08/28 08:30:29;;;;;;;1.42;1.42;;;;;;;28.57;50.04;96566.88;5021467;28;20409;-65
2023/08/28 08:32:56;;;;;;;1.55;1.55;;;;;;;28.58;49.75;96559.91;5021895;28;20594;-62
2023/08/28 08:35:24;;;;;;;1.80;1.80;;;;;;;28.56;49.80;96559.63;5022504;28;20049;-62
2023/08/28 08:37:54;;;;;;;1.40;1.40;;;;;;;28.69;48.50;96548.63;5022437;28;20045;-64
2023/08/28 08:40:25;;;;;;;1.58;1.58;;;;;;;28.46;47.67;96512.56;5022331;28;20196;-63
2023/08/28 08:42:54;;;;;;;1.60;1.60;;;;;;;28.92;46.73;96544.72;5022941;28;20057;-61
2023/08/28 08:45:28;;;;;;;1.40;1.40;;;;;;;28.32;46.34;96473.56;5022569;28;20041;-63
2023/08/28 08:47:58;;;;;;;1.63;1.63;;;;;;;28.96;46.87;96545.28;5022164;28;20104;-62
2023/08/28 08:50:27;;;;;;;1.60;1.60;;;;;;;28.75;46.04;96495.28;5020518;28;20053;-62
2023/08/28 08:53:01;;;;;;;1.73;1.73;;;;;;;28.56;46.10;96465.56;5022372;28;20059;-62
2023/08/28 08:55:46;;;;;;;1.80;1.80;;;;;;;29.16;43.14;96548.09;5021911;28;20045;-64
2023/08/28 08:58:16;;;;;;;1.75;1.75;;;;;;;29.05;43.36;96536.53;5021307;28;20057;-62
2023/08/28 09:00:43;;;;;;;1.52;1.52;;;;;;;29.31;41.58;96538.09;5020760;28;20530;-61
2023/08/28 09:03:12;;;;;;;1.60;1.60;;;;;;;29.31;40.45;96531.59;5021500;28;20460;-64
2023/08/28 09:05:40;;;;;;;1.70;1.70;;;;;;;29.41;39.67;96541.53;5021354;28;20068;-63
2023/08/28 09:08:08;;;;;;;1.58;1.58;;;;;;;29.59;37.58;96536.22;5019857;28;20079;-68
2023/08/28 09:10:34;;;;;;;1.90;1.90;;;;;;;29.81;36.63;96535.63;5018850;28;20402;-63
2023/08/28 09:13:01;;;;;;;1.60;1.60;;;;;;;29.42;37.52;96478.22;5023542;28;20056;-63
2023/08/28 09:15:29;;;;;;;1.85;1.85;;;;;;;29.92;36.45;96518.56;5019348;28;20049;-70
2023/08/28 09:17:59;;;;;;;1.85;1.85;;;;;;;29.91;36.34;96565.53;5017047;28;20061;-68
2023/08/28 09:20:26;;;;;;;1.58;1.58;;;;;;;29.54;35.46;96407.72;5020943;28;20134;-67
2023/08/28 09:22:53;;;;;;;2.00;2.00;;;;;;;30.33;33.65;96519.00;5022021;28;20054;-62
2023/08/28 09:25:23;;;;;;;1.80;1.80;;;;;;;30.16;33.03;96516.03;5020479;28;20139;-63
2023/08/28 09:27:52;;;;;;;1.60;1.60;;;;;;;30.44;32.40;96525.56;5020627;28;20495;-64
2023/08/28 09:30:31;;;;;;;1.85;1.85;;;;;;;29.61;31.93;96435.78;5021923;28;20046;-62
2023/08/28 09:33:01;;;;;;;2.00;2.00;;;;;;;30.18;31.09;96504.88;5022530;28;20049;-69
2023/08/28 09:35:39;;;;;;;1.92;1.92;;;;;;;29.65;32.24;96479.19;5020546;28;20045;-69
2023/08/28 09:38:07;;;;;;;1.85;1.85;;;;;;;29.84;31.67;96511.75;5007049;28;20516;-64
2023/08/28 09:40:41;;;;;;;1.77;1.77;;;;;;;29.74;31.83;96501.03;5019076;28;20053;-64
2023/08/28 09:43:13;;;;;;;1.60;1.60;;;;;;;30.19;31.49;96491.38;5021302;28;20057;-64
2023/08/28 09:45:41;;;;;;;2.00;2.00;;;;;;;30.46;31.35;96485.78;5034730;28;20363;-65
2023/08/28 09:48:10;;;;;;;1.75;1.75;;;;;;;30.69;30.51;96464.53;5012437;28;20459;-61
2023/08/28 09:50:40;;;;;;;1.95;1.95;;;;;;;31.06;30.19;96484.34;5021831;28;20136;-66
2023/08/28 09:53:10;;;;;;;1.88;1.88;;;;;;;31.24;29.48;96488.75;5021893;28;20053;-64
2023/08/28 09:55:46;;;;;;;1.50;1.50;;;;;;;31.39;28.65;96483.56;5021826;28;20056;-66
2023/08/28 09:58:13;;;;;;;1.73;1.73;;;;;;;31.21;29.66;96479.13;5021147;28;20048;-63
2023/08/28 10:00:40;;;;;;;1.90;1.90;;;;;;;29.34;30.28;96183.19;5020102;28;20151;-62
2023/08/28 10:03:09;;;;;;;1.65;1.65;;;;;;;31.37;30.22;96469.00;5017235;28;20136;-61
2023/08/28 10:05:42;;;;;;;1.90;1.90;;;;;;;31.55;30.03;96463.50;5011212;28;20052;-61
2023/08/28 10:08:10;;;;;;;1.90;1.90;;;;;;;31.78;28.96;96465.00;5015311;28;20108;-62
2023/08/28 10:10:40;;;;;;;2.17;2.17;;;;;;;31.94;28.08;96466.28;5018683;28;20050;-62
2023/08/28 10:13:13;;;;;;;1.98;1.98;;;;;;;32.00;28.45;96458.44;5017390;28;20064;-63
2023/08/28 10:16:00;;;;;;;2.13;2.13;;;;;;;32.22;29.29;96446.88;5013165;28;20553;-65
2023/08/28 10:18:36;;;;;;;1.92;1.92;;;;;;;32.47;29.38;96445.72;5024601;28;20046;-63
2023/08/28 10:21:04;;;;;;;1.65;1.65;;;;;;;32.52;29.26;96438.41;5024539;28;20064;-65
2023/08/28 10:23:33;;;;;;;2.08;2.08;;;;;;;32.39;28.18;96416.03;5014246;28;20589;-63
2023/08/28 10:26:01;;;;;;;1.88;1.88;;;;;;;32.57;28.12;96421.16;5009208;28;20873;-61
2023/08/28 10:28:29;;;;;;;2.35;2.33;;;;;;;32.20;29.47;96369.25;5031741;28;20588;-64
2023/08/28 10:30:57;;;;;;;1.80;1.80;;;;;;;31.11;30.39;96260.31;5019407;28;20049;-67
2023/08/28 10:33:25;;;;;;;1.90;1.90;;;;;;;32.66;29.29;96434.41;5018801;28;20053;-65
2023/08/28 10:35:54;;;;;;;1.73;1.73;;;;;;;32.50;29.66;96415.97;5019212;28;20058;-60
2023/08/28 10:38:21;;;;;;;1.88;1.88;;;;;;;32.18;30.45;96334.59;5024389;28;20676;-62
2023/08/28 10:40:50;;;;;;;1.65;1.65;;;;;;;32.97;29.89;96434.72;5022914;28;20053;-62
2023/08/28 10:43:22;;;;;;;1.98;1.98;;;;;;;32.13;30.37;96364.84;5021670;28;20717;-61
2023/08/28 10:45:57;;;;;;;1.75;1.75;;;;;;;33.22;29.25;96430.56;5022903;28;20053;-60
2023/08/28 10:48:24;;;;;;;2.00;2.00;;;;;;;32.74;29.40;96378.75;5021332;28;20057;-64
2023/08/28 10:50:58;;;;;;;1.80;1.80;;;;;;;33.25;29.21;96423.75;5020996;28;20095;-66
2023/08/28 10:53:26;;;;;;;1.73;1.73;;;;;;;32.49;30.06;96336.97;5022882;28;20689;-62
2023/08/28 10:55:59;;;;;;;2.10;2.10;;;;;;;32.93;30.46;96387.53;5020524;28;20121;-66
2023/08/28 10:58:37;;;;;;;1.80;1.80;;;;;;;33.21;30.39;96371.56;5014691;28;20201;-68
2023/08/28 11:01:17;;;;;;;2.33;2.33;;;;;;;33.57;30.23;96407.53;5011598;28;20140;-63
2023/08/28 11:03:58;;;;;;;2.00;2.00;;;;;;;32.66;31.84;96412.22;5019956;28;20729;-68
2023/08/28 11:06:45;;;;;;;2.08;2.08;;;;;;;31.68;32.16;96331.19;5031581;28;20056;-64
2023/08/28 11:09:27;;;;;;;2.22;2.22;;;;;;;32.40;32.30;96406.16;5021061;28;20049;-65
2023/08/28 11:11:57;;;;;;;2.10;2.10;;;;;;;32.69;31.40;96393.94;5011586;28;20045;-70
2023/08/28 11:14:47;;;;;;;1.95;1.95;;;;;;;33.12;32.48;96397.78;5014480;28;20053;-63
2023/08/28 11:17:21;;;;;;;1.80;1.80;;;;;;;32.92;31.81;96395.34;5016243;28;20882;-61
2023/08/28 11:22:36;;;;;;;1.73;1.73;;;;;;;33.44;31.58;96384.44;5040631;28;20064;-60
2023/08/28 11:25:11;;;;;;;1.83;1.83;;;;;;;33.15;31.45;96315.53;5033115;28;20077;-62
2023/08/28 11:27:44;;;;;;;1.88;1.88;;;;;;;33.23;31.36;96337.38;5018941;28;20427;-66
2023/08/28 11:30:13;;;;;;;1.90;1.90;;;;;;;33.62;31.33;96372.19;5008025;28;20056;-68
2023/08/28 11:32:43;;;;;;;1.92;1.92;;;;;;;33.57;31.31;96364.44;5021928;28;20136;-61
2023/08/28 11:35:16;;;;;;;1.88;1.88;;;;;;;33.55;31.03;96349.81;5021563;28;20046;-64
2023/08/28 11:37:51;;;;;;;1.90;1.90;;;;;;;33.83;30.74;96351.59;5018137;28;20512;-61
2023/08/28 11:40:28;;;;;;;2.05;2.05;;;;;;;33.80;30.87;96355.53;5016436;28;20385;-66
2023/08/28 11:43:03;;;;;;;2.10;2.10;;;;;;;33.70;30.00;96292.69;5021850;28;20550;-66
2023/08/28 11:45:31;;;;;;;2.00;2.00;;;;;;;34.12;30.01;96365.06;5022508;28;20493;-62